createdAt,value
2023-03-30T00:00:23.422Z,15.60
2023-03-30T00:02:53.927Z,15.73
2023-03-30T00:05:23.951Z,14.25
2023-03-30T00:07:51.174Z,13.18
2023-03-30T00:10:19.342Z,16.58
2023-03-30T00:12:47.780Z,14.15
2023-03-30T00:15:16.732Z,14.75
2023-03-30T00:17:43.787Z,13.45
2023-03-30T00:20:12.257Z,15.13
2023-03-30T00:22:43.792Z,13.98
2023-03-30T00:25:13.858Z,14.18
2023-03-30T00:27:41.848Z,14.93
2023-03-30T00:30:11.796Z,15.20
2023-03-30T00:32:38.723Z,13.45
2023-03-30T00:35:06.293Z,14.82
2023-03-30T00:37:33.534Z,13.05
2023-03-30T00:40:00.473Z,13.68
2023-03-30T00:42:27.280Z,14.13
2023-03-30T00:45:12.803Z,13.90
2023-03-30T00:47:46.535Z,12.18
2023-03-30T00:50:14.124Z,14.95
2023-03-30T00:52:43.389Z,11.95
2023-03-30T00:55:11.805Z,13.23
2023-03-30T00:57:41.667Z,15.38
2023-03-30T01:00:11.655Z,14.38
2023-03-30T01:02:46.259Z,15.18
2023-03-30T01:05:13.415Z,16.85
2023-03-30T01:07:42.142Z,14.38
2023-03-30T01:10:12.119Z,12.65
2023-03-30T01:12:39.793Z,11.27
2023-03-30T01:15:10.509Z,12.50
2023-03-30T01:17:58.128Z,13.18
2023-03-30T01:20:28.527Z,11.98
2023-03-30T01:23:30.153Z,14.50
2023-03-30T01:26:41.650Z,11.88
2023-03-30T01:29:46.976Z,12.40
2023-03-30T01:32:30.371Z,11.55
2023-03-30T01:35:26.736Z,12.07
2023-03-30T01:38:17.385Z,11.93
2023-03-30T01:40:54.968Z,12.20
2023-03-30T01:43:35.527Z,14.40
2023-03-30T01:46:25.291Z,12.27
2023-03-30T01:49:40.790Z,11.20
2023-03-30T01:52:31.920Z,10.98
2023-03-30T01:55:09.495Z,16.40
2023-03-30T01:57:47.881Z,10.50
2023-03-30T02:00:19.128Z,13.60
2023-03-30T02:03:09.032Z,10.48
2023-03-30T02:05:37.209Z,11.27
2023-03-30T02:08:14.445Z,11.85
2023-03-30T02:10:43.813Z,13.05
2023-03-30T02:13:12.023Z,10.63
2023-03-30T02:15:53.088Z,14.98
2023-03-30T02:18:20.415Z,11.15
2023-03-30T02:23:17.471Z,13.35
2023-03-30T02:25:44.878Z,13.80
2023-03-30T02:28:11.759Z,15.50
2023-03-30T02:30:44.029Z,12.27
2023-03-30T02:33:33.475Z,12.38
2023-03-30T02:36:09.993Z,13.02
2023-03-30T02:39:14.646Z,15.45
2023-03-30T02:42:13.680Z,12.23
2023-03-30T02:44:53.644Z,13.13
2023-03-30T02:47:23.671Z,11.50
2023-03-30T02:50:09.543Z,11.73
2023-03-30T02:53:04.350Z,13.75
2023-03-30T02:55:39.830Z,11.15
2023-03-30T02:58:33.221Z,11.43
2023-03-30T03:01:16.336Z,9.77
2023-03-30T03:04:01.994Z,13.13
2023-03-30T03:06:34.940Z,11.23
2023-03-30T03:09:02.033Z,9.52
2023-03-30T03:11:32.218Z,9.82
2023-03-30T03:14:00.506Z,11.50
2023-03-30T03:16:29.959Z,10.32
2023-03-30T03:19:17.222Z,11.45
2023-03-30T03:21:47.635Z,11.40
2023-03-30T03:24:17.476Z,9.50
2023-03-30T03:27:16.777Z,11.88
2023-03-30T03:30:03.268Z,13.18
2023-03-30T03:32:35.704Z,9.80
2023-03-30T03:35:02.642Z,10.40
2023-03-30T03:37:31.261Z,11.07
2023-03-30T03:39:58.192Z,9.73
2023-03-30T03:42:25.956Z,9.18
2023-03-30T03:45:02.928Z,11.15
2023-03-30T03:47:31.408Z,13.77
2023-03-30T03:49:58.910Z,9.38
2023-03-30T03:52:25.964Z,10.82
2023-03-30T03:54:52.761Z,11.98
2023-03-30T03:57:19.951Z,11.52
2023-03-30T03:59:47.256Z,11.32
2023-03-30T04:02:14.272Z,9.95
2023-03-30T04:04:41.639Z,11.57
2023-03-30T04:07:10.795Z,10.57
2023-03-30T04:09:37.776Z,12.55
2023-03-30T04:12:18.426Z,10.00
2023-03-30T04:15:03.972Z,11.98
2023-03-30T04:17:50.548Z,10.82
2023-03-30T04:20:30.202Z,12.48
2023-03-30T04:23:10.349Z,10.27
2023-03-30T04:26:01.739Z,9.60
2023-03-30T04:28:57.730Z,11.77
2023-03-30T04:32:04.131Z,10.10
2023-03-30T04:34:54.862Z,10.98
2023-03-30T04:37:42.381Z,10.57
2023-03-30T04:40:38.876Z,11.93
2023-03-30T04:43:15.137Z,11.50
2023-03-30T04:45:42.294Z,10.85
2023-03-30T04:48:41.270Z,10.68
2023-03-30T04:51:31.744Z,9.73
2023-03-30T04:54:17.567Z,11.80
2023-03-30T04:57:19.666Z,9.63
2023-03-30T05:00:09.368Z,11.52
2023-03-30T05:02:36.697Z,13.43
2023-03-30T05:05:26.651Z,13.25
2023-03-30T05:08:19.644Z,10.45
2023-03-30T05:11:06.830Z,10.18
2023-03-30T05:13:59.663Z,9.65
2023-03-30T05:16:27.157Z,9.90
2023-03-30T05:19:29.510Z,14.23
2023-03-30T05:22:17.116Z,10.85
2023-03-30T05:25:10.123Z,13.60
2023-03-30T05:27:54.630Z,10.77
2023-03-30T05:30:38.112Z,11.93
2023-03-30T05:33:38.107Z,11.32
2023-03-30T05:36:30.754Z,10.32
2023-03-30T05:39:16.607Z,10.52
2023-03-30T05:41:59.107Z,9.98
2023-03-30T05:44:39.428Z,11.10
2023-03-30T05:47:25.212Z,12.55
2023-03-30T05:50:09.530Z,10.27
2023-03-30T05:53:12.068Z,12.90
2023-03-30T05:55:59.813Z,13.20
2023-03-30T05:58:53.020Z,13.55
2023-03-30T06:01:38.757Z,11.98
2023-03-30T06:04:06.220Z,10.10
2023-03-30T06:06:35.133Z,10.18
2023-03-30T06:09:04.482Z,11.48
2023-03-30T06:11:34.234Z,12.80
2023-03-30T06:14:17.410Z,12.23
2023-03-30T06:16:57.370Z,9.70
2023-03-30T06:19:27.094Z,13.68
2023-03-30T06:21:54.551Z,11.90
2023-03-30T06:26:56.046Z,12.93
2023-03-30T06:29:23.274Z,12.82
2023-03-30T06:31:51.420Z,9.40
2023-03-30T06:34:38.475Z,9.75
2023-03-30T06:37:08.537Z,11.52
2023-03-30T06:39:37.898Z,8.57
2023-03-30T06:42:06.698Z,9.50
2023-03-30T06:44:50.659Z,11.85
2023-03-30T06:47:20.108Z,9.38
2023-03-30T06:50:03.164Z,8.55
2023-03-30T06:52:49.133Z,10.77
2023-03-30T06:55:17.093Z,11.38
2023-03-30T06:57:45.170Z,8.48
2023-03-30T07:00:13.637Z,12.13
2023-03-30T07:03:00.337Z,10.40
2023-03-30T07:05:33.500Z,9.90
2023-03-30T07:08:20.331Z,11.68
2023-03-30T07:13:22.354Z,8.80
2023-03-30T07:15:52.536Z,9.90
2023-03-30T07:18:19.986Z,8.00
2023-03-30T07:20:46.952Z,8.60
2023-03-30T07:23:20.080Z,10.45
2023-03-30T07:25:48.349Z,15.15
2023-03-30T07:28:20.576Z,11.30
2023-03-30T07:30:47.903Z,11.18
2023-03-30T07:33:19.006Z,10.10
2023-03-30T07:35:47.870Z,11.23
2023-03-30T07:38:20.362Z,8.55
2023-03-30T07:40:51.666Z,8.45
2023-03-30T07:43:20.346Z,14.63
2023-03-30T07:45:47.613Z,12.13
2023-03-30T07:48:21.912Z,9.77
2023-03-30T07:50:49.117Z,10.27
2023-03-30T07:53:16.223Z,12.98
2023-03-30T07:55:45.250Z,10.23
2023-03-30T07:58:21.217Z,11.10
2023-03-30T08:00:48.766Z,9.63
2023-03-30T08:03:39.394Z,13.38
2023-03-30T08:06:06.688Z,12.38
2023-03-30T08:08:41.114Z,10.80
2023-03-30T08:11:11.581Z,13.48
2023-03-30T08:13:41.274Z,10.70
2023-03-30T08:16:09.218Z,9.15
2023-03-30T08:18:37.235Z,13.10
2023-03-30T08:21:05.222Z,11.10
2023-03-30T08:23:32.289Z,11.75
2023-03-30T08:25:59.983Z,13.05
2023-03-30T08:28:27.133Z,8.90
2023-03-30T08:30:54.845Z,9.60
2023-03-30T08:33:24.231Z,9.43
2023-03-30T08:35:51.547Z,8.95
2023-03-30T08:38:19.183Z,11.50
2023-03-30T08:40:47.741Z,16.63
2023-03-30T08:43:35.203Z,8.73
2023-03-30T08:46:03.354Z,10.52
2023-03-30T08:48:37.471Z,10.13
2023-03-30T08:51:18.960Z,12.05
2023-03-30T08:53:45.815Z,12.80
2023-03-30T08:56:21.906Z,10.73
2023-03-30T08:59:10.430Z,10.93
2023-03-30T09:02:22.087Z,8.98
2023-03-30T09:05:02.107Z,9.88
2023-03-30T09:07:50.294Z,9.90
2023-03-30T09:10:19.851Z,9.10
2023-03-30T09:12:50.975Z,10.60
2023-03-30T09:15:20.412Z,10.77
2023-03-30T09:18:10.847Z,11.50
2023-03-30T09:20:41.362Z,9.38
2023-03-30T09:23:18.677Z,11.70
2023-03-30T09:25:49.360Z,8.15
2023-03-30T09:28:26.514Z,10.90
2023-03-30T09:31:00.663Z,10.57
2023-03-30T09:34:04.467Z,9.77
2023-03-30T09:36:51.746Z,12.55
2023-03-30T09:39:24.275Z,9.75
2023-03-30T09:42:12.878Z,14.00
2023-03-30T09:44:56.195Z,15.52
2023-03-30T09:50:04.791Z,10.00
2023-03-30T09:52:37.222Z,14.45
2023-03-30T09:55:22.480Z,22.33
2023-03-30T09:57:51.125Z,11.63
2023-03-30T10:00:32.768Z,11.40
2023-03-30T10:03:02.933Z,11.77
2023-03-30T10:05:31.585Z,12.05
2023-03-30T10:08:01.486Z,10.30
2023-03-30T10:10:34.074Z,10.50
2023-03-30T10:13:13.495Z,10.90
2023-03-30T10:15:44.418Z,9.18
2023-03-30T10:18:37.434Z,9.98
2023-03-30T10:21:05.703Z,12.73
2023-03-30T10:23:40.259Z,11.98
2023-03-30T10:26:16.058Z,9.23
2023-03-30T10:28:54.224Z,10.82
2023-03-30T10:31:23.860Z,10.98
2023-03-30T10:34:00.135Z,11.85
2023-03-30T10:36:32.780Z,10.52
2023-03-30T10:39:14.271Z,11.30
2023-03-30T10:41:42.600Z,11.55
2023-03-30T10:44:19.019Z,10.70
2023-03-30T10:46:46.722Z,12.75
2023-03-30T10:49:41.114Z,13.32
2023-03-30T10:52:17.416Z,12.65
2023-03-30T10:54:57.371Z,13.00
2023-03-30T10:57:52.241Z,15.90
2023-03-30T11:00:32.944Z,13.65
2023-03-30T11:03:15.886Z,12.75
2023-03-30T11:05:51.419Z,18.60
2023-03-30T11:08:34.980Z,14.70
2023-03-30T11:13:40.136Z,16.55
2023-03-30T11:16:22.000Z,14.02
2023-03-30T11:19:09.392Z,14.75
2023-03-30T11:22:00.525Z,12.00
2023-03-30T11:24:28.821Z,14.55
2023-03-30T11:27:05.386Z,13.00
2023-03-30T11:29:49.775Z,13.88
2023-03-30T11:32:16.716Z,13.15
2023-03-30T11:35:05.496Z,15.48
2023-03-30T11:38:01.810Z,13.18
2023-03-30T11:40:44.499Z,13.55
2023-03-30T11:43:13.376Z,15.73
2023-03-30T11:46:04.220Z,13.30
2023-03-30T11:48:46.862Z,12.27
2023-03-30T11:51:22.321Z,12.57
2023-03-30T11:53:54.516Z,14.25
2023-03-30T11:56:47.060Z,17.02
2023-03-30T11:59:30.672Z,13.25
2023-03-30T12:02:21.919Z,13.48
2023-03-30T12:04:56.880Z,13.82
2023-03-30T12:07:57.707Z,12.25
2023-03-30T12:10:27.157Z,13.15
2023-03-30T12:12:55.926Z,15.20
2023-03-30T12:15:53.879Z,11.32
2023-03-30T12:18:42.470Z,12.43
2023-03-30T12:21:31.083Z,15.20
2023-03-30T12:24:17.022Z,14.27
2023-03-30T12:26:51.790Z,14.38
2023-03-30T12:32:29.257Z,13.45
2023-03-30T12:34:57.913Z,14.40
2023-03-30T12:37:33.542Z,17.23
2023-03-30T12:40:07.617Z,14.07
2023-03-30T12:42:39.701Z,15.82
2023-03-30T12:45:13.984Z,13.82
2023-03-30T12:48:10.124Z,16.67
2023-03-30T12:51:07.231Z,13.18
2023-03-30T12:53:55.357Z,16.80
2023-03-30T12:56:31.483Z,13.93
2023-03-30T12:59:27.150Z,13.80
2023-03-30T13:01:59.416Z,14.63
2023-03-30T13:04:32.683Z,13.57
2023-03-30T13:07:04.108Z,14.30
2023-03-30T13:09:55.935Z,14.93
2023-03-30T13:12:39.631Z,13.10
2023-03-30T13:15:31.702Z,14.40
2023-03-30T13:18:02.935Z,14.95
2023-03-30T13:20:57.225Z,13.85
2023-03-30T13:23:27.138Z,19.65
2023-03-30T13:26:21.884Z,17.75
2023-03-30T13:29:11.464Z,13.60
2023-03-30T13:31:47.637Z,12.68
2023-03-30T13:34:19.230Z,13.63
2023-03-30T13:37:01.056Z,14.07
2023-03-30T13:39:31.130Z,11.32
2023-03-30T13:42:20.757Z,13.90
2023-03-30T13:45:05.567Z,12.25
2023-03-30T13:47:50.671Z,15.75
2023-03-30T13:50:31.238Z,13.98
2023-03-30T13:53:10.768Z,14.90
2023-03-30T13:55:44.228Z,15.80
2023-03-30T13:58:23.120Z,14.65
2023-03-30T14:00:53.980Z,12.05
2023-03-30T14:03:38.192Z,13.75
2023-03-30T14:06:14.289Z,11.20
2023-03-30T14:08:45.096Z,11.60
2023-03-30T14:11:36.060Z,12.25
2023-03-30T14:14:04.628Z,11.23
2023-03-30T14:16:40.607Z,10.30
2023-03-30T14:19:26.170Z,8.60
2023-03-30T14:22:01.951Z,11.13
2023-03-30T14:24:37.956Z,9.85
2023-03-30T14:27:15.827Z,11.27
2023-03-30T14:29:47.658Z,9.00
2023-03-30T14:32:21.327Z,10.15
2023-03-30T14:34:52.421Z,14.90
2023-03-30T14:37:21.524Z,10.85
2023-03-30T14:39:53.036Z,9.63
2023-03-30T14:42:27.802Z,10.73
2023-03-30T14:44:57.134Z,14.80
2023-03-30T14:47:26.763Z,11.88
2023-03-30T14:49:57.599Z,16.65
2023-03-30T14:52:33.937Z,14.52
2023-03-30T14:55:06.011Z,15.10
2023-03-30T14:57:38.810Z,17.27
2023-03-30T15:00:18.708Z,17.38
2023-03-30T15:02:48.939Z,19.83
2023-03-30T15:05:18.436Z,16.73
2023-03-30T15:08:30.559Z,20.73
2023-03-30T15:11:01.154Z,19.92
2023-03-30T15:13:38.106Z,18.95
2023-03-30T15:16:06.133Z,20.15
2023-03-30T15:18:35.095Z,19.08
2023-03-30T15:21:02.412Z,19.50
2023-03-30T15:23:38.212Z,23.02
2023-03-30T15:26:07.184Z,20.02
2023-03-30T15:28:43.293Z,19.80
2023-03-30T15:31:13.533Z,18.60
2023-03-30T15:33:46.773Z,24.52
2023-03-30T15:36:17.435Z,23.77
2023-03-30T15:38:51.710Z,21.30
2023-03-30T15:41:22.368Z,22.50
2023-03-30T15:44:11.964Z,16.77
2023-03-30T15:46:40.301Z,18.40
2023-03-30T15:49:09.655Z,19.88
2023-03-30T15:51:42.431Z,21.98
2023-03-30T15:54:16.786Z,19.48
2023-03-30T15:56:54.836Z,19.38
2023-03-30T15:59:31.335Z,25.05
2023-03-30T16:02:03.809Z,22.65
2023-03-30T16:04:32.301Z,25.33
2023-03-30T16:06:59.133Z,25.95
2023-03-30T16:09:25.936Z,23.67
2023-03-30T16:11:52.840Z,24.60
2023-03-30T16:14:21.147Z,24.33
2023-03-30T16:16:48.562Z,25.75
2023-03-30T16:19:19.733Z,23.65
2023-03-30T16:21:46.745Z,24.60
2023-03-30T16:24:13.587Z,23.52
2023-03-30T16:26:40.604Z,26.17
2023-03-30T16:29:22.036Z,26.98
2023-03-30T16:31:50.728Z,24.50
2023-03-30T16:34:18.224Z,27.38
2023-03-30T16:36:45.652Z,30.10
2023-03-30T16:39:18.476Z,31.77
2023-03-30T16:41:45.756Z,31.70
2023-03-30T16:44:12.686Z,34.30
2023-03-30T16:46:42.038Z,30.83
2023-03-30T16:49:15.285Z,32.63
2023-03-30T16:51:42.116Z,29.63
2023-03-30T16:54:19.517Z,28.60
2023-03-30T16:56:54.477Z,30.92
2023-03-30T16:59:25.581Z,33.35
2023-03-30T17:07:01.477Z,28.40
2023-03-30T17:09:28.458Z,29.63
2023-03-30T17:11:55.276Z,30.60
2023-03-30T17:14:23.398Z,37.13
2023-03-30T17:16:50.704Z,29.85
2023-03-30T17:19:17.588Z,24.23
2023-03-30T17:21:46.034Z,31.33
2023-03-30T17:24:15.268Z,26.42
2023-03-30T17:26:42.609Z,33.67
2023-03-30T17:29:10.542Z,29.60
2023-03-30T17:31:38.417Z,28.00
2023-03-30T17:34:06.772Z,31.58
2023-03-30T17:36:33.658Z,29.05
2023-03-30T17:39:04.704Z,29.00
2023-03-30T17:41:33.792Z,29.20
2023-03-30T17:44:00.841Z,30.10
2023-03-30T17:46:28.337Z,31.05
2023-03-30T17:48:55.333Z,29.15
2023-03-30T17:51:22.236Z,30.92
2023-03-30T17:53:49.222Z,28.85
2023-03-30T17:56:15.983Z,27.70
2023-03-30T17:58:42.779Z,29.95
2023-03-30T18:01:12.528Z,34.78
2023-03-30T18:03:39.726Z,34.22
2023-03-30T18:06:07.094Z,30.83
2023-03-30T18:08:34.301Z,34.65
2023-03-30T18:11:05.064Z,34.28
2023-03-30T18:13:32.414Z,32.20
2023-03-30T18:16:06.724Z,33.28
2023-03-30T18:18:39.253Z,33.67
2023-03-30T18:21:06.900Z,34.20
2023-03-30T18:23:34.724Z,32.78
2023-03-30T18:26:03.985Z,32.65
2023-03-30T18:28:31.687Z,30.00
2023-03-30T18:31:00.548Z,29.17
2023-03-30T18:33:27.705Z,31.50
2023-03-30T18:35:56.862Z,33.13
2023-03-30T18:38:25.846Z,27.80
2023-03-30T18:40:58.082Z,28.83
2023-03-30T18:43:26.737Z,28.63
2023-03-30T18:45:54.543Z,29.17
2023-03-30T18:48:22.118Z,29.88
2023-03-30T18:50:54.472Z,28.90
2023-03-30T18:53:24.020Z,30.60
2023-03-30T18:56:00.673Z,29.15
2023-03-30T18:58:30.541Z,30.17
2023-03-30T19:01:00.967Z,31.52
2023-03-30T19:03:30.212Z,29.02
2023-03-30T19:05:57.170Z,29.90
2023-03-30T19:08:26.094Z,30.05
2023-03-30T19:10:57.991Z,29.70
2023-03-30T19:13:26.698Z,24.92
2023-03-30T19:15:54.403Z,34.85
2023-03-30T19:18:21.740Z,28.77
2023-03-30T19:20:50.993Z,29.92
2023-03-30T19:23:19.152Z,31.40
2023-03-30T19:25:46.093Z,28.73
2023-03-30T19:28:13.291Z,32.42
2023-03-30T19:30:40.606Z,34.00
2023-03-30T19:33:11.108Z,29.65
2023-03-30T19:35:41.198Z,31.77
2023-03-30T19:38:08.370Z,33.53
2023-03-30T19:40:36.529Z,30.02
2023-03-30T19:43:03.503Z,27.83
2023-03-30T19:45:31.319Z,31.17
2023-03-30T19:47:58.129Z,32.97
2023-03-30T19:57:56.946Z,30.88
2023-03-30T20:00:24.606Z,33.15
2023-03-30T20:03:01.376Z,31.15
2023-03-30T20:06:13.405Z,30.77
2023-03-30T20:08:47.061Z,29.10
2023-03-30T20:11:16.617Z,31.73
2023-03-30T20:13:46.025Z,29.95
2023-03-30T20:16:31.549Z,27.03
2023-03-30T20:18:58.865Z,33.10
2023-03-30T20:21:29.233Z,31.73
2023-03-30T20:24:00.207Z,30.35
2023-03-30T20:26:30.591Z,31.17
2023-03-30T20:28:57.515Z,36.15
2023-03-30T20:31:44.640Z,33.97
2023-03-30T20:34:13.021Z,29.45
2023-03-30T20:36:40.555Z,29.33
2023-03-30T20:39:34.011Z,33.40
2023-03-30T20:42:08.389Z,29.10
2023-03-30T20:44:45.252Z,32.83
2023-03-30T20:47:20.036Z,27.75
2023-03-30T20:50:00.157Z,28.30
2023-03-30T20:52:30.166Z,29.27
2023-03-30T20:54:57.195Z,30.85
2023-03-30T20:57:24.858Z,28.23
2023-03-30T20:59:59.855Z,30.35
2023-03-30T21:02:34.799Z,31.88
2023-03-30T21:05:13.174Z,31.20
2023-03-30T21:10:53.718Z,33.45
2023-03-30T21:13:20.597Z,32.45
2023-03-30T21:15:51.754Z,29.30
2023-03-30T21:18:22.798Z,29.80
2023-03-30T21:20:49.674Z,31.05
2023-03-30T21:23:16.401Z,34.05
2023-03-30T21:25:44.301Z,31.52
2023-03-30T21:28:12.217Z,32.13
2023-03-30T21:30:39.425Z,31.73
2023-03-30T21:33:06.613Z,36.58
2023-03-30T21:35:33.543Z,29.50
2023-03-30T21:38:01.185Z,35.30
2023-03-30T21:40:29.586Z,31.27
2023-03-30T21:42:56.409Z,36.70
2023-03-30T21:45:24.626Z,31.40
2023-03-30T21:47:51.585Z,27.48
2023-03-30T21:50:18.464Z,29.13
2023-03-30T21:52:45.270Z,32.38
2023-03-30T21:55:12.030Z,30.05
2023-03-30T21:57:39.296Z,34.65
2023-03-30T22:00:10.138Z,29.70
2023-03-30T22:02:59.536Z,30.50
2023-03-30T22:05:27.114Z,38.30
2023-03-30T22:07:53.805Z,35.53
2023-03-30T22:10:20.539Z,39.63
2023-03-30T22:12:47.251Z,35.40
2023-03-30T22:15:14.051Z,34.17
2023-03-30T22:17:45.668Z,34.67
2023-03-30T22:20:13.057Z,33.70
2023-03-30T22:22:43.662Z,30.25
2023-03-30T22:25:10.781Z,24.67
2023-03-30T22:27:37.688Z,29.20
2023-03-30T22:30:06.006Z,25.80
2023-03-30T22:32:33.617Z,25.10
2023-03-30T22:35:00.442Z,27.30
2023-03-30T22:37:27.157Z,27.45
2023-03-30T22:39:53.883Z,27.63
2023-03-30T22:42:20.927Z,28.00
2023-03-30T22:44:47.947Z,28.02
2023-03-30T22:47:14.824Z,27.55
2023-03-30T22:49:44.436Z,20.00
2023-03-30T22:52:11.144Z,16.40
2023-03-30T22:54:37.891Z,15.32
2023-03-30T22:57:04.756Z,10.52
2023-03-30T22:59:31.599Z,8.45
2023-03-30T23:01:58.348Z,5.80
2023-03-30T23:04:25.311Z,4.60
2023-03-30T23:06:52.065Z,5.03
2023-03-30T23:09:21.692Z,4.47
2023-03-30T23:11:48.838Z,3.30
2023-03-30T23:14:15.741Z,4.45
2023-03-30T23:16:44.685Z,3.17
2023-03-30T23:19:12.180Z,3.72
2023-03-30T23:21:39.164Z,5.95
2023-03-30T23:24:09.972Z,3.08
2023-03-30T23:26:36.783Z,5.70
2023-03-30T23:29:03.853Z,3.15
2023-03-30T23:31:30.668Z,4.43
2023-03-30T23:33:57.770Z,2.25
2023-03-30T23:36:25.007Z,3.97
2023-03-30T23:38:51.992Z,5.78
2023-03-30T23:41:20.380Z,2.75
2023-03-30T23:43:48.003Z,4.10
2023-03-30T23:46:15.711Z,4.57
2023-03-30T23:48:42.639Z,3.92
2023-03-30T23:51:09.779Z,3.45
2023-03-30T23:53:40.389Z,3.95
2023-03-30T23:56:12.972Z,2.58
2023-03-30T23:58:41.652Z,3.65
